Time;durP1;ratioP1;P1;durP2;ratioP2;P2;SDS_P1;SDS_P2;PMS_P1;PMS_P2;Temp;Humidity;BMP_temperature;BMP_pressure;BME280_temperature;BME280_humidity;BME280_pressure;Samples;Min_cycle;Max_cycle;Signal;HPM_P1;HPM_P2
2022/02/18 00:02:16;;;;;;;;;;;;;;;;;;4319541;33;20292;-71
2022/02/18 00:04:41;;;;;;;;;;;;;;;;;;4316188;33;19939;-70
2022/02/18 00:07:07;;;;;;;;;;;;;;;;;;4317276;33;20025;-69
2022/02/18 00:09:32;;;;;;;;;;;;;;;;;;4316151;33;20255;-70
2022/02/18 00:11:58;;;;;;;;;;;;;;;;;;4316151;33;20285;-70
2022/02/18 00:14:23;;;;;;;;;;;;;;;;;;4317054;33;19947;-69
2022/02/18 00:16:48;;;;;;;;;;;;;;;;;;4317756;33;19973;-69
2022/02/18 00:19:13;;;;;;;;;;;;;;;;;;4316011;33;20235;-70
2022/02/18 00:21:38;;;;;;;;;;;;;;;;;;4317703;33;19995;-70
2022/02/18 00:24:03;;;;;;;;;;;;;;;;;;4317413;33;19959;-70
2022/02/18 00:26:28;;;;;;;;;;;;;;;;;;4316974;33;19982;-70
2022/02/18 00:28:53;;;;;;;;;;;;;;;;;;4317145;33;20313;-70
2022/02/18 00:31:18;;;;;;;;;;;;;;;;;;4317285;33;19935;-71
2022/02/18 00:33:44;;;;;;;;;;;;;;;;;;4316754;33;20052;-70
2022/02/18 00:36:09;;;;;;;;;;;;;;;;;;4317101;33;19950;-69
2022/02/18 00:38:34;;;;;;;;;;;;;;;;;;4315527;33;19978;-70
2022/02/18 00:40:59;;;;;;;;;;;;;;;;;;4319082;33;20025;-70
2022/02/18 00:43:24;;;;;;;;;;;;;;;;;;4317447;33;19940;-69
2022/02/18 00:45:49;;;;;;;;;;;;;;;;;;4317953;33;19974;-69
2022/02/18 00:48:14;;;;;;;;;;;;;;;;;;4315791;33;19970;-69
2022/02/18 00:50:39;;;;;;;;;;;;;;;;;;4316496;33;19969;-69
2022/02/18 00:53:05;;;;;;;;;;;;;;;;;;4318318;33;19935;-70
2022/02/18 00:55:30;;;;;;;;;;;;;;;;;;4318430;33;19959;-70
2022/02/18 00:57:55;;;;;;;;;;;;;;;;;;4315376;33;19959;-71
2022/02/18 01:00:21;;;;;;;;;;;;;;;;;;4317617;33;19953;-70
2022/02/18 01:02:46;;;;;;;;;;;;;;;;;;4316080;33;19990;-69
2022/02/18 01:05:11;;;;;;;;;;;;;;;;;;4315374;33;20357;-70
2022/02/18 01:07:36;;;;;;;;;;;;;;;;;;4315270;33;19981;-70
2022/02/18 01:10:01;;;;;;;;;;;;;;;;;;4316513;33;19950;-70
2022/02/18 01:12:26;;;;;;;;;;;;;;;;;;4315331;33;20356;-71
2022/02/18 01:14:52;;;;;;;;;;;;;;;;;;4317856;33;19963;-70
2022/02/18 01:17:17;;;;;;;;;;;;;;;;;;4318291;33;19974;-70
2022/02/18 01:19:42;;;;;;;;;;;;;;;;;;4316610;33;19936;-70
2022/02/18 01:22:07;;;;;;;;;;;;;;;;;;4318013;33;19975;-70
2022/02/18 01:24:32;;;;;;;;;;;;;;;;;;4315617;33;19955;-69
2022/02/18 01:26:57;;;;;;;;;;;;;;;;;;4316594;33;19947;-70
2022/02/18 01:29:22;;;;;;;;;;;;;;;;;;4317786;33;19947;-69
2022/02/18 01:31:47;;;;;;;;;;;;;;;;;;4317816;33;19935;-69
2022/02/18 01:34:12;;;;;;;;;;;;;;;;;;4316678;33;20274;-71
2022/02/18 01:36:37;;;;;;;;;;;;;;;;;;4316203;33;19986;-70
2022/02/18 01:39:13;;;;;;;;;;;;;;;;;;4325202;27;19948;-81
2022/02/18 01:41:49;;;;;;;;;;;;;;;;;;4300746;33;19962;-81
2022/02/18 01:44:14;;;;;;;;;;;;;;;;;;4302130;33;19991;-82
2022/02/18 01:47:00;;;;;;;;;;;;;;;;;;4302309;33;20001;-82
2022/02/18 01:49:39;;;;;;;;;;;;;;;;;;4302120;33;19941;-82
2022/02/18 01:52:13;;;;;;;;;;;;;;;;;;4302301;33;19963;-81
2022/02/18 01:55:23;;;;;;;;;;;;;;;;;;4302249;33;19940;-82
2022/02/18 01:57:26;;;;;;;;;;;;;;;;;;4296459;33;20294;-82
2022/02/18 02:00:12;;;;;;;;;;;;;;;;;;4301347;33;19940;-82
2022/02/18 02:02:45;;;;;;;;;;;;;;;;;;4301702;33;19940;-81
2022/02/18 02:08:27;;;;;;;;;;;;;;;;;;4271203;33;19944;-82
2022/02/18 02:11:12;;;;;;;;;;;;;;;;;;;;;
2022/02/18 02:13:44;;;;;;;;;;;;;;;;;;4271325;33;20049;-82
2022/02/18 02:17:13;;;;;;;;;;;;;;;;;;4271710;33;20099;-82
2022/02/18 02:21:48;;;;;;;;;;;;;;;;;;4301709;33;20348;-81
2022/02/18 02:24:37;;;;;;;;;;;;;;;;;;4300859;33;19936;-81
2022/02/18 02:26:59;;;;;;;;;;;;;;;;;;4301031;33;20339;-81
2022/02/18 02:29:30;;;;;;;;;;;;;;;;;;4302380;33;19936;-81
2022/02/18 02:31:55;;;;;;;;;;;;;;;;;;4304842;33;19936;-81
2022/02/18 02:34:20;;;;;;;;;;;;;;;;;;4304671;33;19951;-81
2022/02/18 02:36:55;;;;;;;;;;;;;;;;;;;;;
2022/02/18 02:39:41;;;;;;;;;;;;;;;;;;;;;
2022/02/18 02:42:13;;;;;;;;;;;;;;;;;;4304491;33;19956;-81
2022/02/18 02:44:48;;;;;;;;;;;;;;;;;;;;;
2022/02/18 02:47:32;;;;;;;;;;;;;;;;;;;;;
2022/02/18 02:50:04;;;;;;;;;;;;;;;;;;4304431;33;19940;-81
2022/02/18 02:52:39;;;;;;;;;;;;;;;;;;;;;
2022/02/18 02:55:06;;;;;;;;;;;;;;;;;;4304694;33;19936;-81
2022/02/18 03:00:22;;;;;;;;;;;;;;;;;;4304617;33;19931;-81
2022/02/18 03:02:49;;;;;;;;;;;;;;;;;;4304021;33;19940;-81
2022/02/18 03:05:33;;;;;;;;;;;;;;;;;;;;;
2022/02/18 03:08:13;;;;;;;;;;;;;;;;;;;;;
2022/02/18 03:10:44;;;;;;;;;;;;;;;;;;4304329;33;19974;-80
2022/02/18 03:13:29;;;;;;;;;;;;;;;;;;4303766;33;19931;-81
2022/02/18 03:16:38;;;;;;;;;;;;;;;;;;4304119;33;19974;-80
2022/02/18 03:19:10;;;;;;;;;;;;;;;;;;4299556;33;19974;-81
2022/02/18 03:21:56;;;;;;;;;;;;;;;;;;;;;
2022/02/18 03:24:34;;;;;;;;;;;;;;;;;;;;;
2022/02/18 03:27:08;;;;;;;;;;;;;;;;;;4245340;33;19999;-82
2022/02/18 03:29:39;;;;;;;;;;;;;;;;;;4244564;33;19934;-81
2022/02/18 03:32:49;;;;;;;;;;;;;;;;;;4244963;33;19953;-82
2022/02/18 03:34:49;;;;;;;;;;;;;;;;;;4244857;33;19979;-80
2022/02/18 03:37:17;;;;;;;;;;;;;;;;;;4244786;33;19949;-80
2022/02/18 03:39:52;;;;;;;;;;;;;;;;;;;;;
2022/02/18 03:42:21;;;;;;;;;;;;;;;;;;4243220;33;19956;-82
2022/02/18 03:47:48;;;;;;;;;;;;;;;;;;;;;
2022/02/18 03:50:13;;;;;;;;;;;;;;;;;;4289459;33;19936;-81
2022/02/18 03:52:51;;;;;;;;;;;;;;;;;;;;;
2022/02/18 03:55:33;;;;;;;;;;;;;;;;;;4289504;33;19951;-82
2022/02/18 04:00:50;;;;;;;;;;;;;;;;;;4287313;33;19972;-82
2022/02/18 04:03:18;;;;;;;;;;;;;;;;;;4287551;33;19951;-82
2022/02/18 04:05:55;;;;;;;;;;;;;;;;;;4288549;33;20295;-82
2022/02/18 04:09:05;;;;;;;;;;;;;;;;;;4288760;33;19963;-81
2022/02/18 04:11:09;;;;;;;;;;;;;;;;;;4283433;33;19954;-81
2022/02/18 04:13:41;;;;;;;;;;;;;;;;;;4288915;33;19954;-81
2022/02/18 04:16:07;;;;;;;;;;;;;;;;;;4289127;33;19956;-82
2022/02/18 04:18:42;;;;;;;;;;;;;;;;;;;;;
2022/02/18 04:21:19;;;;;;;;;;;;;;;;;;4289010;33;19963;-81
2022/02/18 04:23:50;;;;;;;;;;;;;;;;;;4289193;33;19951;-81
2022/02/18 04:26:18;;;;;;;;;;;;;;;;;;4288692;33;19964;-81
2022/02/18 04:28:53;;;;;;;;;;;;;;;;;;;;;
2022/02/18 04:31:21;;;;;;;;;;;;;;;;;;4287557;33;19943;-81
2022/02/18 04:33:58;;;;;;;;;;;;;;;;;;4288143;33;19940;-80
2022/02/18 04:36:26;;;;;;;;;;;;;;;;;;4288439;33;19954;-80
2022/02/18 04:38:53;;;;;;;;;;;;;;;;;;4287851;33;19940;-81
2022/02/18 04:41:18;;;;;;;;;;;;;;;;;;4298317;33;19950;-81
2022/02/18 04:43:46;;;;;;;;;;;;;;;;;;4303242;33;19960;-81
2022/02/18 04:46:13;;;;;;;;;;;;;;;;;;4300729;33;20017;-81
2022/02/18 04:48:39;;;;;;;;;;;;;;;;;;4301983;33;19950;-81
2022/02/18 04:51:04;;;;;;;;;;;;;;;;;;4302408;33;20274;-81
2022/02/18 04:53:35;;;;;;;;;;;;;;;;;;4300776;33;20297;-81
2022/02/18 04:56:10;;;;;;;;;;;;;;;;;;;;;
2022/02/18 04:58:38;;;;;;;;;;;;;;;;;;4299406;33;19940;-80
2022/02/18 05:01:12;;;;;;;;;;;;;;;;;;4302667;33;19948;-81
2022/02/18 05:03:51;;;;;;;;;;;;;;;;;;4302997;33;20366;-81
2022/02/18 05:06:16;;;;;;;;;;;;;;;;;;4301179;33;20296;-80
2022/02/18 05:08:53;;;;;;;;;;;;;;;;;;4302749;33;19948;-81
2022/02/18 05:11:36;;;;;;;;;;;;;;;;;;4301462;33;19996;-81
2022/02/18 05:14:01;;;;;;;;;;;;;;;;;;4301714;33;19936;-81
2022/02/18 05:16:26;;;;;;;;;;;;;;;;;;4302388;33;20041;-79
2022/02/18 05:18:54;;;;;;;;;;;;;;;;;;4302970;33;20266;-80
2022/02/18 05:21:19;;;;;;;;;;;;;;;;;;4301978;33;20358;-80
2022/02/18 05:23:45;;;;;;;;;;;;;;;;;;4302256;33;19958;-79
2022/02/18 05:26:17;;;;;;;;;;;;;;;;;;4302508;33;19940;-80
2022/02/18 05:28:45;;;;;;;;;;;;;;;;;;4301330;33;19976;-81
2022/02/18 05:31:20;;;;;;;;;;;;;;;;;;;;;
2022/02/18 05:33:48;;;;;;;;;;;;;;;;;;4302656;33;19948;-80
2022/02/18 05:36:13;;;;;;;;;;;;;;;;;;4302317;33;19955;-83
2022/02/18 05:38:42;;;;;;;;;;;;;;;;;;4302256;33;19980;-79
2022/02/18 05:41:17;;;;;;;;;;;;;;;;;;4301704;33;19956;-81
2022/02/18 05:43:52;;;;;;;;;;;;;;;;;;4302290;33;19939;-81
2022/02/18 05:46:17;;;;;;;;;;;;;;;;;;4302698;33;19940;-80
2022/02/18 05:49:01;;;;;;;;;;;;;;;;;;;;;
2022/02/18 05:51:27;;;;;;;;;;;;;;;;;;4302572;33;19958;-78
2022/02/18 05:53:57;;;;;;;;;;;;;;;;;;4302173;33;19940;-80
2022/02/18 05:56:23;;;;;;;;;;;;;;;;;;4302698;33;19950;-81
2022/02/18 05:58:48;;;;;;;;;;;;;;;;;;4302066;33;19940;-77
2022/02/18 06:01:16;;;;;;;;;;;;;;;;;;4302502;33;19944;-79
2022/02/18 06:03:42;;;;;;;;;;;;;;;;;;4302811;33;19940;-80
2022/02/18 06:06:13;;;;;;;;;;;;;;;;;;4304333;33;20326;-81
2022/02/18 06:08:39;;;;;;;;;;;;;;;;;;4307951;33;20306;-82
2022/02/18 06:11:04;;;;;;;;;;;;;;;;;;4307434;33;19987;-81
2022/02/18 06:13:32;;;;;;;;;;;;;;;;;;4306750;33;19940;-81
2022/02/18 06:15:57;;;;;;;;;;;;;;;;;;4306791;33;19939;-80
2022/02/18 06:18:22;;;;;;;;;;;;;;;;;;4306894;33;19992;-80
2022/02/18 06:20:47;;;;;;;;;;;;;;;;;;4307897;33;19975;-80
2022/02/18 06:23:12;;;;;;;;;;;;;;;;;;4309211;33;19940;-80
2022/02/18 06:25:38;;;;;;;;;;;;;;;;;;4313079;33;19992;-81
2022/02/18 06:28:03;;;;;;;;;;;;;;;;;;4313705;33;20041;-80
2022/02/18 06:30:35;;;;;;;;;;;;;;;;;;4315494;33;19976;-82
2022/02/18 06:33:03;;;;;;;;;;;;;;;;;;4316433;33;20007;-81
2022/02/18 06:35:34;;;;;;;;;;;;;;;;;;4315351;33;19931;-82
2022/02/18 06:38:02;;;;;;;;;;;;;;;;;;4316269;33;20003;-82
2022/02/18 06:40:32;;;;;;;;;;;;;;;;;;4313240;33;19955;-81
2022/02/18 06:42:57;;;;;;;;;;;;;;;;;;4310851;33;19988;-79
2022/02/18 06:45:23;;;;;;;;;;;;;;;;;;4306648;33;19937;-80
2022/02/18 06:48:07;;;;;;;;;;;;;;;;;;;;;
2022/02/18 06:50:35;;;;;;;;;;;;;;;;;;4304978;33;20285;-81
2022/02/18 06:53:00;;;;;;;;;;;;;;;;;;4307079;33;19993;-80
2022/02/18 06:55:25;;;;;;;;;;;;;;;;;;4305212;33;19940;-80
2022/02/18 06:57:50;;;;;;;;;;;;;;;;;;4306119;33;19940;-80
2022/02/18 07:00:15;;;;;;;;;;;;;;;;;;4305048;33;19944;-81
2022/02/18 07:02:40;;;;;;;;;;;;;;;;;;4304787;33;19967;-81
2022/02/18 07:05:06;;;;;;;;;;;;;;;;;;4305249;33;20287;-81
2022/02/18 07:07:31;;;;;;;;;;;;;;;;;;4304703;33;19952;-80
2022/02/18 07:09:56;;;;;;;;;;;;;;;;;;4305018;33;20016;-82
2022/02/18 07:12:25;;;;;;;;;;;;;;;;;;4304092;33;19935;-81
2022/02/18 07:14:50;;;;;;;;;;;;;;;;;;4303671;33;19975;-81
2022/02/18 07:17:15;;;;;;;;;;;;;;;;;;4303932;33;19936;-81
2022/02/18 07:19:40;;;;;;;;;;;;;;;;;;4303404;33;20031;-81
2022/02/18 07:22:05;;;;;;;;;;;;;;;;;;4303451;33;20283;-78
2022/02/18 07:24:30;;;;;;;;;;;;;;;;;;4304071;33;19982;-77
2022/02/18 07:26:56;;;;;;;;;;;;;;;;;;4309851;33;19943;-79
2022/02/18 07:29:21;;;;;;;;;;;;;;;;;;4316345;33;19932;-81
2022/02/18 07:31:46;;;;;;;;;;;;;;;;;;4316819;33;19950;-79
2022/02/18 07:34:11;;;;;;;;;;;;;;;;;;4315598;33;19954;-77
2022/02/18 07:36:43;;;;;;;;;;;;;;;;;;4317535;33;19935;-80
2022/02/18 07:39:09;;;;;;;;;;;;;;;;;;4318200;33;19950;-79
2022/02/18 07:41:34;;;;;;;;;;;;;;;;;;4325819;33;19998;-79
2022/02/18 07:43:59;;;;;;;;;;;;;;;;;;4332499;33;19950;-79
2022/02/18 07:46:24;;;;;;;;;;;;;;;;;;4322294;33;19944;-77
2022/02/18 07:48:49;;;;;;;;;;;;;;;;;;4316757;33;20034;-80
2022/02/18 07:51:14;;;;;;;;;;;;;;;;;;4316063;33;19955;-77
2022/02/18 07:53:41;;;;;;;;;;;;;;;;;;4316805;33;20295;-76
2022/02/18 07:56:06;;;;;;;;;;;;;;;;;;4317445;33;19936;-79
2022/02/18 07:58:31;;;;;;;;;;;;;;;;;;4318355;33;19978;-79
2022/02/18 08:00:56;;;;;;;;;;;;;;;;;;4317400;33;19995;-79
2022/02/18 08:03:21;;;;;;;;;;;;;;;;;;4317286;33;19943;-80
2022/02/18 08:05:47;;;;;;;;;;;;;;;;;;4317384;33;20277;-80
2022/02/18 08:08:12;;;;;;;;;;;;;;;;;;4317528;33;20016;-78
2022/02/18 08:10:37;;;;;;;;;;;;;;;;;;4317198;33;19975;-79
2022/02/18 08:13:02;;;;;;;;;;;;;;;;;;4317287;33;20241;-79
2022/02/18 08:15:28;;;;;;;;;;;;;;;;;;4317929;33;20306;-78
2022/02/18 08:17:55;;;;;;;;;;;;;;;;;;4315931;33;19959;-79
2022/02/18 08:20:21;;;;;;;;;;;;;;;;;;4315620;33;19974;-80
2022/02/18 08:22:46;;;;;;;;;;;;;;;;;;4317209;33;19932;-79
2022/02/18 08:25:11;;;;;;;;;;;;;;;;;;4317366;33;20356;-80
2022/02/18 08:27:36;;;;;;;;;;;;;;;;;;4330306;33;19938;-79
2022/02/18 08:30:01;;;;;;;;;;;;;;;;;;4323965;33;19954;-80
2022/02/18 08:32:26;;;;;;;;;;;;;;;;;;4307733;33;19948;-77
2022/02/18 08:34:51;;;;;;;;;;;;;;;;;;4303647;33;19939;-80
2022/02/18 08:37:19;;;;;;;;;;;;;;;;;;4317457;33;19935;-80
2022/02/18 08:39:44;;;;;;;;;;;;;;;;;;4318181;33;19949;-80
2022/02/18 08:42:11;;;;;;;;;;;;;;;;;;4317186;33;19975;-80
2022/02/18 08:44:37;;;;;;;;;;;;;;;;;;4317235;33;20239;-80
2022/02/18 08:47:05;;;;;;;;;;;;;;;;;;4317486;33;19947;-80
2022/02/18 08:49:30;;;;;;;;;;;;;;;;;;4317070;33;19982;-79
2022/02/18 08:51:55;;;;;;;;;;;;;;;;;;4317961;33;20281;-80
2022/02/18 08:54:21;;;;;;;;;;;;;;;;;;4318181;33;19935;-80
2022/02/18 08:56:48;;;;;;;;;;;;;;;;;;4317708;33;19936;-81
2022/02/18 08:59:16;;;;;;;;;;;;;;;;;;4317498;33;19935;-80
2022/02/18 09:01:41;;;;;;;;;;;;;;;;;;4317108;33;20358;-81
2022/02/18 09:04:06;;;;;;;;;;;;;;;;;;4316685;33;19940;-80
2022/02/18 09:06:32;;;;;;;;;;;;;;;;;;4317389;33;19940;-79
2022/02/18 09:08:57;;;;;;;;;;;;;;;;;;4316694;33;19998;-78
2022/02/18 09:11:28;;;;;;;;;;;;;;;;;;4316955;33;19958;-79
2022/02/18 09:13:56;;;;;;;;;;;;;;;;;;4316966;33;19944;-80
2022/02/18 09:16:25;;;;;;;;;;;;;;;;;;4316844;33;19950;-81
2022/02/18 09:18:55;;;;;;;;;;;;;;;;;;4316706;33;19975;-79
2022/02/18 09:21:21;;;;;;;;;;;;;;;;;;4317476;33;20030;-80
2022/02/18 09:23:46;;;;;;;;;;;;;;;;;;4316740;33;19944;-81
2022/02/18 09:26:11;;;;;;;;;;;;;;;;;;4317122;33;20003;-80
2022/02/18 09:28:36;;;;;;;;;;;;;;;;;;4316458;33;19939;-80
2022/02/18 09:31:01;;;;;;;;;;;;;;;;;;4317117;33;19970;-82
2022/02/18 09:33:28;;;;;;;;;;;;;;;;;;4315607;33;19944;-80
2022/02/18 09:35:53;;;;;;;;;;;;;;;;;;4316562;33;19939;-81
2022/02/18 09:38:18;;;;;;;;;;;;;;;;;;4317299;33;20281;-80
2022/02/18 09:40:49;;;;;;;;;;;;;;;;;;4316237;33;20273;-79
2022/02/18 09:43:15;;;;;;;;;;;;;;;;;;4316475;33;20007;-80
2022/02/18 09:45:40;;;;;;;;;;;;;;;;;;4316254;33;20343;-80
2022/02/18 09:48:05;;;;;;;;;;;;;;;;;;4303035;33;20263;-80
2022/02/18 09:50:33;;;;;;;;;;;;;;;;;;4316710;33;20322;-79
2022/02/18 09:52:58;;;;;;;;;;;;;;;;;;4316729;33;20002;-80
2022/02/18 09:55:23;;;;;;;;;;;;;;;;;;4303727;33;19947;-82
2022/02/18 09:57:48;;;;;;;;;;;;;;;;;;4316103;33;19939;-78
2022/02/18 10:00:14;;;;;;;;;;;;;;;;;;4302967;33;20070;-80
2022/02/18 10:02:40;;;;;;;;;;;;;;;;;;4316486;33;19951;-80
2022/02/18 10:05:05;;;;;;;;;;;;;;;;;;4315621;33;20002;-79
2022/02/18 10:07:33;;;;;;;;;;;;;;;;;;4315994;33;20321;-79
2022/02/18 10:09:58;;;;;;;;;;;;;;;;;;4315857;33;19944;-77
2022/02/18 10:12:23;;;;;;;;;;;;;;;;;;4315158;33;19957;-79
2022/02/18 10:14:48;;;;;;;;;;;;;;;;;;4315030;33;19943;-80
2022/02/18 10:17:13;;;;;;;;;;;;;;;;;;4315531;33;19943;-80
2022/02/18 10:19:39;;;;;;;;;;;;;;;;;;4315913;33;19975;-80
2022/02/18 10:22:04;;;;;;;;;;;;;;;;;;4315529;33;20422;-78
2022/02/18 10:24:29;;;;;;;;;;;;;;;;;;4315537;33;20335;-79
2022/02/18 10:26:54;;;;;;;;;;;;;;;;;;4315539;33;19954;-80
2022/02/18 10:29:19;;;;;;;;;;;;;;;;;;4315789;33;19950;-79
2022/02/18 10:31:44;;;;;;;;;;;;;;;;;;4315426;33;19978;-80
2022/02/18 10:34:09;;;;;;;;;;;;;;;;;;4315683;33;19952;-80
2022/02/18 10:36:38;;;;;;;;;;;;;;;;;;4314845;33;20317;-79
2022/02/18 10:50:34;;;;;;;;;;;;;;;;;;4286092;33;19971;-79
2022/02/18 10:55:54;;;;;;;;;;;;;;;;;;4251319;33;19951;-79
2022/02/18 11:06:34;;;;;;;;;;;;;;;;;;4304107;33;20340;-78
2022/02/18 11:09:18;;;;;;;;;;;;;;;;;;;;;
2022/02/18 11:12:12;;;;;;;;;;;;;;;;;;;;;
2022/02/18 11:14:58;;;;;;;;;;;;;;;;;;4272827;33;19955;-78
2022/02/18 11:17:36;;;;;;;;;;;;;;;;;;;;;
2022/02/18 11:20:04;;;;;;;;;;;;;;;;;;4275417;33;19944;-82
2022/02/18 11:22:48;;;;;;;;;;;;;;;;;;;;;
2022/02/18 11:25:17;;;;;;;;;;;;;;;;;;4272273;33;19945;-78
2022/02/18 11:27:45;;;;;;;;;;;;;;;;;;4303130;33;20372;-78
2022/02/18 11:30:21;;;;;;;;;;;;;;;;;;4303554;33;20025;-82
2022/02/18 11:40:59;;;;;;;;;;;;;;;;;;4317833;33;19970;-79
2022/02/18 11:49:39;;;;;;;;;;;;;;;;;;4301363;33;19979;-77
2022/02/18 11:55:16;;;;;;;;;;;;;;;;;;4301446;33;20003;-78
2022/02/18 12:00:28;;;;;;;;;;;;;;;;;;4301647;33;19964;-80
2022/02/18 12:05:57;;;;;;;;;;;;;;;;;;4289126;33;19941;-80
2022/02/18 12:08:25;;;;;;;;;;;;;;;;;;4291061;33;19952;-78
2022/02/18 12:11:01;;;;;;;;;;;;;;;;;;;;;
2022/02/18 12:13:29;;;;;;;;;;;;;;;;;;4301219;33;19935;-82
2022/02/18 12:15:57;;;;;;;;;;;;;;;;;;4300721;33;19951;-81
2022/02/18 12:18:44;;;;;;;;;;;;;;;;;;4300904;33;19958;-80
2022/02/18 12:21:14;;;;;;;;;;;;;;;;;;4301191;33;19939;-81
2022/02/18 12:26:43;;;;;;;;;;;;;;;;;;4242054;33;19978;-79
2022/02/18 12:32:17;;;;;;;;;;;;;;;;;;4271767;33;19940;-80
2022/02/18 12:37:38;;;;;;;;;;;;;;;;;;;;;
2022/02/18 12:43:06;;;;;;;;;;;;;;;;;;4317338;33;20022;-82
2022/02/18 12:48:47;;;;;;;;;;;;;;;;;;;;;
2022/02/18 12:51:26;;;;;;;;;;;;;;;;;;4285463;33;19951;-80
2022/02/18 12:56:55;;;;;;;;;;;;;;;;;;4286566;33;19936;-79
2022/02/18 12:59:29;;;;;;;;;;;;;;;;;;4298965;33;19936;-81
2022/02/18 13:02:15;;;;;;;;;;;;;;;;;;4293010;33;19995;-82
2022/02/18 13:10:26;;;;;;;;;;;;;;;;;;4307054;33;19995;-84
2022/02/18 13:16:00;;;;;;;;;;;;;;;;;;;;;
2022/02/18 13:30:31;;;;;;;;;;;;;;;;;;;;;
2022/02/18 13:35:05;;;;;;;;;;;;;;;;;;4286746;33;19995;-80
2022/02/18 13:40:41;;;;;;;;;;;;;;;;;;4271390;33;20021;-82
2022/02/18 13:43:14;;;;;;;;;;;;;;;;;;4315351;33;19954;-80
2022/02/18 13:51:24;;;;;;;;;;;;;;;;;;4300725;33;19936;-83
2022/02/18 13:54:10;;;;;;;;;;;;;;;;;;4289446;33;19958;-82
2022/02/18 13:56:52;;;;;;;;;;;;;;;;;;4289417;33;19950;-84
2022/02/18 13:59:23;;;;;;;;;;;;;;;;;;4289341;33;19946;-81
2022/02/18 14:01:48;;;;;;;;;;;;;;;;;;4288928;33;19940;-83
2022/02/18 14:07:19;;;;;;;;;;;;;;;;;;;;;
2022/02/18 14:10:01;;;;;;;;;;;;;;;;;;4270982;33;20353;-82
2022/02/18 14:12:29;;;;;;;;;;;;;;;;;;4270567;33;20409;-83
2022/02/18 14:14:57;;;;;;;;;;;;;;;;;;4271333;33;19993;-82
2022/02/18 14:17:42;;;;;;;;;;;;;;;;;;4269729;33;19948;-82
2022/02/18 14:20:10;;;;;;;;;;;;;;;;;;4270656;33;19992;-82
2022/02/18 14:22:53;;;;;;;;;;;;;;;;;;4270824;33;19970;-82
2022/02/18 14:25:21;;;;;;;;;;;;;;;;;;4314872;33;19974;-84
2022/02/18 14:28:08;;;;;;;;;;;;;;;;;;4318143;33;20002;-85
2022/02/18 14:31:04;;;;;;;;;;;;;;;;;;;;;
2022/02/18 14:36:13;;;;;;;;;;;;;;;;;;4313620;33;19944;-83
2022/02/18 14:38:59;;;;;;;;;;;;;;;;;;4316225;33;19945;-85
2022/02/18 14:41:23;;;;;;;;;;;;;;;;;;4318387;33;20007;-85
2022/02/18 14:43:49;;;;;;;;;;;;;;;;;;4317399;33;19975;-83
2022/02/18 14:46:15;;;;;;;;;;;;;;;;;;4319026;33;19935;-85
2022/02/18 14:49:10;;;;;;;;;;;;;;;;;;4318473;33;19974;-82
2022/02/18 14:51:39;;;;;;;;;;;;;;;;;;4317238;33;19973;-80
2022/02/18 14:54:04;;;;;;;;;;;;;;;;;;4317294;33;19931;-80
2022/02/18 14:56:32;;;;;;;;;;;;;;;;;;4316889;33;19954;-79
2022/02/18 14:59:00;;;;;;;;;;;;;;;;;;4316980;33;19931;-80
2022/02/18 15:01:26;;;;;;;;;;;;;;;;;;4318114;33;20380;-80
2022/02/18 15:03:57;;;;;;;;;;;;;;;;;;4317387;33;19939;-80
2022/02/18 15:06:22;;;;;;;;;;;;;;;;;;4318092;33;20280;-78
2022/02/18 15:08:48;;;;;;;;;;;;;;;;;;4318245;33;19948;-81
2022/02/18 15:11:13;;;;;;;;;;;;;;;;;;4317339;33;19939;-79
2022/02/18 15:13:38;;;;;;;;;;;;;;;;;;4317129;33;19935;-80
2022/02/18 15:16:03;;;;;;;;;;;;;;;;;;4316861;33;19958;-80
2022/02/18 15:18:30;;;;;;;;;;;;;;;;;;4313949;33;19940;-76
2022/02/18 15:21:08;;;;;;;;;;;;;;;;;;4303672;33;19983;-80
2022/02/18 15:26:34;;;;;;;;;;;;;;;;;;4299979;33;20327;-78
2022/02/18 15:34:45;;;;;;;;;;;;;;;;;;;;;
2022/02/18 15:35:02;;;;;;;;;;;;;;;;;;4315902;33;19987;-78
2022/02/18 15:37:37;;;;;;;;;;;;;;;;;;4318472;33;19991;-78
2022/02/18 15:42:48;;;;;;;;;;;;;;;;;;4317545;33;19958;-77
2022/02/18 15:48:13;;;;;;;;;;;;;;;;;;4299483;33;19956;-78
2022/02/18 15:53:27;;;;;;;;;;;;;;;;;;4314193;33;19991;-79
2022/02/18 15:58:43;;;;;;;;;;;;;;;;;;4316927;33;19965;-80
2022/02/18 16:01:09;;;;;;;;;;;;;;;;;;4316020;33;19940;-78
2022/02/18 16:03:35;;;;;;;;;;;;;;;;;;4315274;33;19943;-79
2022/02/18 16:06:01;;;;;;;;;;;;;;;;;;4317263;33;20023;-80
2022/02/18 16:08:26;;;;;;;;;;;;;;;;;;4324935;33;19947;-80
2022/02/18 16:10:51;;;;;;;;;;;;;;;;;;4331343;33;19983;-83
2022/02/18 16:13:16;;;;;;;;;;;;;;;;;;4329064;33;20071;-81
2022/02/18 16:15:49;;;;;;;;;;;;;;;;;;4301965;33;20243;-81
2022/02/18 16:18:14;;;;;;;;;;;;;;;;;;4304694;33;19955;-79
2022/02/18 16:20:42;;;;;;;;;;;;;;;;;;4312979;33;20475;-79
2022/02/18 16:23:10;;;;;;;;;;;;;;;;;;4315028;33;19936;-76
2022/02/18 16:25:54;;;;;;;;;;;;;;;;;;;;;
2022/02/18 16:28:21;;;;;;;;;;;;;;;;;;4312206;33;20517;-83
2022/02/18 16:30:47;;;;;;;;;;;;;;;;;;4315296;33;19946;-83
2022/02/18 16:33:12;;;;;;;;;;;;;;;;;;4315772;33;19975;-81
2022/02/18 16:35:37;;;;;;;;;;;;;;;;;;4315796;33;19981;-78
2022/02/18 16:38:02;;;;;;;;;;;;;;;;;;4316818;33;19936;-79
2022/02/18 16:40:34;;;;;;;;;;;;;;;;;;4317744;33;19943;-78
2022/02/18 16:43:07;;;;;;;;;;;;;;;;;;4329258;33;19969;-86
2022/02/18 16:53:58;;;;;;;;;;;;;;;;;;4317488;33;19942;-78
2022/02/18 16:56:36;;;;;;;;;;;;;;;;;;;;;
2022/02/18 16:59:03;;;;;;;;;;;;;;;;;;4317292;33;19962;-77
2022/02/18 17:01:28;;;;;;;;;;;;;;;;;;4309559;33;19949;-80
2022/02/18 17:03:53;;;;;;;;;;;;;;;;;;4316928;33;20276;-76
2022/02/18 17:06:29;;;;;;;;;;;;;;;;;;4313909;33;19944;-80
2022/02/18 17:11:41;;;;;;;;;;;;;;;;;;4308598;33;19979;-80
2022/02/18 17:14:13;;;;;;;;;;;;;;;;;;4317198;33;19950;-81
2022/02/18 17:19:39;;;;;;;;;;;;;;;;;;4300579;33;19983;-81
2022/02/18 17:22:05;;;;;;;;;;;;;;;;;;4302568;33;19992;-80
2022/02/18 17:27:16;;;;;;;;;;;;;;;;;;4301210;33;19950;-82
2022/02/18 17:29:44;;;;;;;;;;;;;;;;;;4316323;33;20269;-81
2022/02/18 17:32:10;;;;;;;;;;;;;;;;;;4315332;33;19946;-80
2022/02/18 17:34:35;;;;;;;;;;;;;;;;;;4316638;33;20033;-82
2022/02/18 17:37:00;;;;;;;;;;;;;;;;;;4315280;33;19995;-79
2022/02/18 17:39:25;;;;;;;;;;;;;;;;;;4316325;33;19953;-82
2022/02/18 17:41:50;;;;;;;;;;;;;;;;;;4315378;33;19974;-78
2022/02/18 17:44:16;;;;;;;;;;;;;;;;;;4315047;33;19936;-77
2022/02/18 17:46:41;;;;;;;;;;;;;;;;;;4315149;33;19973;-80
2022/02/18 17:49:09;;;;;;;;;;;;;;;;;;4314925;33;19943;-79
2022/02/18 17:51:37;;;;;;;;;;;;;;;;;;4316059;33;20322;-78
2022/02/18 17:54:14;;;;;;;;;;;;;;;;;;4316521;33;20325;-80
2022/02/18 17:56:39;;;;;;;;;;;;;;;;;;4303061;33;19943;-82
2022/02/18 17:59:09;;;;;;;;;;;;;;;;;;4316336;33;19978;-82
2022/02/18 18:01:49;;;;;;;;;;;;;;;;;;4305011;33;19950;-80
2022/02/18 18:04:45;;;;;;;;;;;;;;;;;;;;;
2022/02/18 18:07:00;;;;;;;;;;;;;;;;;;4312923;33;19944;-81
2022/02/18 18:09:28;;;;;;;;;;;;;;;;;;4305828;33;20230;-83
2022/02/18 18:11:56;;;;;;;;;;;;;;;;;;4305701;33;19951;-81
2022/02/18 18:14:38;;;;;;;;;;;;;;;;;;4319218;33;19940;-81
2022/02/18 18:17:03;;;;;;;;;;;;;;;;;;4302544;33;19946;-84
2022/02/18 18:19:32;;;;;;;;;;;;;;;;;;4304880;33;19940;-80
2022/02/18 18:21:57;;;;;;;;;;;;;;;;;;4305970;33;19935;-83
2022/02/18 18:24:31;;;;;;;;;;;;;;;;;;4319790;33;20012;-84
2022/02/18 18:26:57;;;;;;;;;;;;;;;;;;4304989;33;19939;-83
2022/02/18 18:29:22;;;;;;;;;;;;;;;;;;4305609;33;19975;-82
2022/02/18 18:31:48;;;;;;;;;;;;;;;;;;4317006;33;19947;-83
2022/02/18 18:34:15;;;;;;;;;;;;;;;;;;4303679;33;19964;-83
2022/02/18 18:36:54;;;;;;;;;;;;;;;;;;4317209;33;19983;-82
2022/02/18 18:39:19;;;;;;;;;;;;;;;;;;4305887;33;19935;-82
2022/02/18 18:41:44;;;;;;;;;;;;;;;;;;4319002;33;20054;-82
2022/02/18 18:44:35;;;;;;;;;;;;;;;;;;4305042;33;19987;-83
2022/02/18 18:47:01;;;;;;;;;;;;;;;;;;4318195;33;19947;-85
2022/02/18 18:49:26;;;;;;;;;;;;;;;;;;4303839;33;19946;-86
2022/02/18 18:52:13;;;;;;;;;;;;;;;;;;4318096;33;19944;-89
2022/02/18 18:54:38;;;;;;;;;;;;;;;;;;4323759;33;19967;-89
2022/02/18 18:57:07;;;;;;;;;;;;;;;;;;4320188;33;19936;-90
2022/02/18 18:59:39;;;;;;;;;;;;;;;;;;4321077;33;20335;-86
2022/02/18 19:02:20;;;;;;;;;;;;;;;;;;4320764;33;19935;-85
2022/02/18 19:04:48;;;;;;;;;;;;;;;;;;4317477;33;19983;-84
2022/02/18 19:07:13;;;;;;;;;;;;;;;;;;4318469;33;19954;-83
2022/02/18 19:09:38;;;;;;;;;;;;;;;;;;4317853;33;19944;-82
2022/02/18 19:12:14;;;;;;;;;;;;;;;;;;4318794;33;19940;-83
2022/02/18 19:14:48;;;;;;;;;;;;;;;;;;4317789;33;19931;-83
2022/02/18 19:17:13;;;;;;;;;;;;;;;;;;4318201;33;19936;-83
2022/02/18 19:19:41;;;;;;;;;;;;;;;;;;4318224;33;20336;-85
2022/02/18 19:22:08;;;;;;;;;;;;;;;;;;4319349;33;19943;-84
2022/02/18 19:24:44;;;;;;;;;;;;;;;;;;4319833;33;19931;-86
2022/02/18 19:27:10;;;;;;;;;;;;;;;;;;4319433;33;19970;-85
2022/02/18 19:29:38;;;;;;;;;;;;;;;;;;4318302;33;19940;-85
2022/02/18 19:32:06;;;;;;;;;;;;;;;;;;4320234;33;19936;-84
2022/02/18 19:34:50;;;;;;;;;;;;;;;;;;4320366;33;19957;-84
2022/02/18 19:37:15;;;;;;;;;;;;;;;;;;4322845;33;19970;-83
2022/02/18 19:39:42;;;;;;;;;;;;;;;;;;4319863;33;19986;-83
2022/02/18 19:42:27;;;;;;;;;;;;;;;;;;;;;
2022/02/18 19:44:52;;;;;;;;;;;;;;;;;;4312882;33;19944;-85
2022/02/18 19:47:18;;;;;;;;;;;;;;;;;;4308494;33;19950;-84
2022/02/18 19:49:54;;;;;;;;;;;;;;;;;;4307447;33;19947;-82
2022/02/18 19:52:22;;;;;;;;;;;;;;;;;;4311094;33;19954;-83
2022/02/18 19:54:57;;;;;;;;;;;;;;;;;;4311687;33;19950;-83
2022/02/18 19:57:25;;;;;;;;;;;;;;;;;;4322829;33;19943;-85